createdAt,value
2019-01-27T00:02:31.640Z,135.67
2019-01-27T00:12:38.139Z,114.03
2019-01-27T00:22:42.911Z,145.40
2019-01-27T00:32:47.684Z,148.37
2019-01-27T00:42:52.563Z,126.97
2019-01-27T00:52:57.334Z,125.60
2019-01-27T01:03:03.059Z,148.07
2019-01-27T01:13:07.724Z,115.20
2019-01-27T01:23:12.479Z,132.97
2019-01-27T01:33:18.425Z,159.07
2019-01-27T01:43:24.416Z,229.13
2019-01-27T01:53:29.066Z,186.63
2019-01-27T02:03:34.339Z,241.77
2019-01-27T02:13:38.930Z,287.23
2019-01-27T02:23:43.682Z,263.23
2019-01-27T02:33:48.367Z,204.10
2019-01-27T02:43:55.419Z,154.17
2019-01-27T02:54:01.434Z,195.50
2019-01-27T03:04:06.170Z,256.10
2019-01-27T03:14:10.942Z,213.87
2019-01-27T03:24:15.709Z,132.13
2019-01-27T03:34:20.296Z,97.73
2019-01-27T03:44:26.180Z,96.90
2019-01-27T03:54:30.847Z,107.30
2019-01-27T04:04:35.405Z,128.40
2019-01-27T04:14:40.087Z,114.87
2019-01-27T04:24:44.708Z,100.53
2019-01-27T04:34:49.333Z,106.20
2019-01-27T04:44:54.109Z,101.80
2019-01-27T04:54:58.783Z,108.57
2019-01-27T05:05:03.754Z,132.30
2019-01-27T05:15:22.575Z,139.87
2019-01-27T05:25:27.232Z,152.57
2019-01-27T05:35:31.897Z,145.27
2019-01-27T05:45:38.214Z,179.20
2019-01-27T05:55:42.985Z,191.13
2019-01-27T06:05:47.759Z,153.07
2019-01-27T06:15:52.534Z,125.03
2019-01-27T06:25:57.205Z,129.43
2019-01-27T06:36:03.212Z,110.70
2019-01-27T06:46:07.998Z,91.80
2019-01-27T06:56:12.759Z,91.57
2019-01-27T07:06:19.076Z,78.37
2019-01-27T07:16:25.994Z,87.13
2019-01-27T07:26:47.879Z,238.83
2019-01-27T07:37:01.343Z,159.63
2019-01-27T07:47:07.766Z,188.07
2019-01-27T07:57:32.413Z,190.80
2019-01-27T08:07:47.926Z,167.67
2019-01-27T08:17:59.989Z,275.70
2019-01-27T08:28:18.886Z,248.40
2019-01-27T08:38:37.065Z,242.63
2019-01-27T08:48:41.834Z,174.97
2019-01-27T08:58:48.590Z,157.93
2019-01-27T09:08:55.841Z,139.77
2019-01-27T09:19:02.212Z,190.93
2019-01-27T09:29:09.640Z,166.97
2019-01-27T09:39:15.950Z,176.57
2019-01-27T09:49:22.262Z,282.83
2019-01-27T09:59:34.111Z,280.97
2019-01-27T10:09:55.979Z,289.37
2019-01-27T10:20:02.354Z,275.70
2019-01-27T10:30:14.536Z,274.13
2019-01-27T10:40:20.754Z,201.80
2019-01-27T10:50:27.060Z,238.10
2019-01-27T11:00:35.940Z,266.53
2019-01-27T11:10:49.916Z,235.40
2019-01-27T11:21:08.113Z,234.80
2019-01-27T11:31:18.718Z,250.80
2019-01-27T11:41:31.276Z,170.70
2019-01-27T11:51:37.584Z,130.30
2019-01-27T12:01:42.570Z,132.27
2019-01-27T12:11:47.256Z,139.33
2019-01-27T12:21:52.307Z,143.07
2019-01-27T12:31:57.421Z,148.50
2019-01-27T12:42:03.205Z,175.73
2019-01-27T12:52:10.537Z,203.83
2019-01-27T13:02:15.769Z,169.33
2019-01-27T13:12:20.707Z,178.07
2019-01-27T13:22:25.803Z,170.67
2019-01-27T13:32:31.395Z,160.70
2019-01-27T13:42:38.637Z,131.27
2019-01-27T13:52:43.386Z,139.73
2019-01-27T14:02:48.881Z,143.30
2019-01-27T14:12:53.824Z,153.00
2019-01-27T14:22:58.576Z,164.93
2019-01-27T14:33:04.240Z,215.57
2019-01-27T14:43:09.005Z,177.63
2019-01-27T14:53:14.499Z,208.00
2019-01-27T15:03:19.382Z,206.47
2019-01-27T15:13:25.004Z,218.57
2019-01-27T15:23:31.380Z,232.47
2019-01-27T15:33:36.181Z,191.97
2019-01-27T15:43:41.043Z,210.33
2019-01-27T15:53:45.926Z,201.90
2019-01-27T16:03:51.008Z,224.43
2019-01-27T16:13:55.771Z,238.73
2019-01-27T16:24:02.161Z,199.70
2019-01-27T16:34:13.209Z,203.50
2019-01-27T16:44:17.973Z,248.07
2019-01-27T16:54:22.753Z,194.30
2019-01-27T17:04:29.577Z,177.57
2019-01-27T17:14:34.251Z,170.87
2019-01-27T17:24:39.023Z,144.47
2019-01-27T17:34:45.135Z,138.63
2019-01-27T17:44:50.245Z,235.37
2019-01-27T17:54:56.730Z,417.40
2019-01-27T18:05:03.256Z,431.57
2019-01-27T18:15:08.631Z,423.57
2019-01-27T18:25:15.254Z,366.37
2019-01-27T18:35:21.497Z,318.27
2019-01-27T18:45:29.852Z,177.77
2019-01-27T18:55:51.693Z,156.10
2019-01-27T19:06:02.549Z,348.90
2019-01-27T19:16:10.765Z,246.83
2019-01-27T19:26:26.531Z,250.63
2019-01-27T19:36:35.473Z,169.60
2019-01-27T19:46:44.670Z,128.83
2019-01-27T19:57:00.066Z,130.07
2019-01-27T20:07:06.748Z,140.90
2019-01-27T20:17:16.363Z,139.07
2019-01-27T20:27:23.095Z,119.73
2019-01-27T20:37:29.511Z,105.10
2019-01-27T20:47:54.248Z,78.70
2019-01-27T20:58:00.684Z,111.77
2019-01-27T21:08:13.795Z,100.13
2019-01-27T21:18:21.956Z,117.97
2019-01-27T21:28:27.577Z,160.00
2019-01-27T21:38:33.555Z,124.00
2019-01-27T21:48:38.869Z,280.40
2019-01-27T21:58:43.751Z,216.90
2019-01-27T22:08:48.724Z,93.80
2019-01-27T22:18:53.631Z,212.07
2019-01-27T22:28:58.490Z,277.50
2019-01-27T22:39:03.630Z,195.73
2019-01-27T22:49:09.006Z,149.27
2019-01-27T22:59:13.828Z,61.20
2019-01-27T23:09:20.543Z,51.23
2019-01-27T23:19:25.332Z,62.40
2019-01-27T23:29:30.092Z,64.47
2019-01-27T23:39:36.371Z,64.43
2019-01-27T23:49:41.556Z,67.87
2019-01-27T23:59:46.570Z,79.97
